Time;durP1;ratioP1;P1;durP2;ratioP2;P2;SDS_P1;SDS_P2;PMS_P1;PMS_P2;Temp;Humidity;BMP_temperature;BMP_pressure;BME280_temperature;BME280_humidity;BME280_pressure;Samples;Min_cycle;Max_cycle;Signal;HPM_P1;HPM_P2
2022/05/07 00:00:38;;;;;;;;;5.00;5.00;;;;;18.33;43.02;102195.63;4980059;28;64838;-46
2022/05/07 00:03:04;;;;;;;;;7.00;6.00;;;;;18.28;43.07;102196.88;4981230;28;45404;-44
2022/05/07 00:05:29;;;;;;;;;7.67;6.00;;;;;18.23;42.92;102194.44;4981014;28;45360;-45
2022/05/07 00:07:55;;;;;;;;;6.00;5.00;;;;;18.16;43.75;102191.25;4980948;28;45596;-45
2022/05/07 00:10:20;;;;;;;;;8.33;7.00;;;;;18.12;43.51;102194.22;4979779;28;67979;-44
2022/05/07 00:12:46;;;;;;;;;8.00;7.00;;;;;18.09;43.75;102195.25;4979720;28;65344;-46
2022/05/07 00:15:11;;;;;;;;;9.00;7.00;;;;;18.08;43.20;102193.56;4981328;28;45614;-44
2022/05/07 00:20:20;;;;;;;;;9.33;9.33;;;;;18.00;43.76;102190.44;4973868;28;45800;-45
2022/05/07 00:22:46;;;;;;;;;8.00;7.33;;;;;17.97;43.87;102186.09;4979405;28;63302;-45
2022/05/07 00:25:11;;;;;;;;;9.33;8.00;;;;;17.97;43.82;102183.41;4981475;28;45366;-46
2022/05/07 00:27:37;;;;;;;;;6.67;6.67;;;;;17.94;43.77;102186.28;4980110;28;45537;-44
2022/05/07 00:30:06;;;;;;;;;7.33;6.67;;;;;17.89;43.77;102182.97;4980044;28;65383;-45
2022/05/07 00:32:31;;;;;;;;;8.33;8.33;;;;;17.85;44.17;102182.28;4980588;28;45342;-44
2022/05/07 00:34:57;;;;;;;;;7.00;7.00;;;;;17.78;44.17;102186.31;4980958;28;45256;-45
2022/05/07 00:37:23;;;;;;;;;12.33;8.33;;;;;17.68;44.01;102180.56;4980228;28;57020;-44
2022/05/07 00:39:49;;;;;;;;;14.00;7.00;;;;;17.64;44.87;102176.34;4980235;28;46977;-45
2022/05/07 00:42:15;;;;;;;;;9.00;8.67;;;;;17.59;44.38;102178.44;4980067;28;45256;-45
2022/05/07 00:44:40;;;;;;;;;7.67;7.00;;;;;17.51;44.15;102172.63;4980246;28;45416;-44
2022/05/07 00:47:14;;;;;;;;;7.00;7.00;;;;;17.43;45.09;102172.19;4979714;28;60471;-45
2022/05/07 00:49:47;;;;;;;;;10.67;6.00;;;;;17.36;44.59;102167.19;4980837;28;46392;-44
2022/05/07 00:52:15;;;;;;;;;8.67;8.67;;;;;17.26;45.18;102168.66;4963454;28;45299;-44
2022/05/07 00:54:41;;;;;;;;;8.33;6.67;;;;;17.20;44.97;102171.69;4943094;28;45330;-45
2022/05/07 00:57:08;;;;;;;;;9.67;8.00;;;;;17.16;45.00;102167.44;4970213;28;45594;-45
2022/05/07 00:59:34;;;;;;;;;8.67;8.00;;;;;17.11;45.54;102170.38;4959870;28;46414;-46
2022/05/07 01:01:59;;;;;;;;;11.33;10.33;;;;;17.07;45.55;102163.44;4980019;28;63462;-45
2022/05/07 01:04:24;;;;;;;;;8.00;8.00;;;;;17.05;45.66;102167.16;4979965;28;61815;-46
2022/05/07 01:06:50;;;;;;;;;9.00;7.00;;;;;17.03;45.79;102165.44;4978923;28;45556;-47
2022/05/07 01:09:15;;;;;;;;;8.33;8.33;;;;;17.03;45.76;102165.44;4958614;28;45344;-46
2022/05/07 01:11:41;;;;;;;;;11.33;11.33;;;;;17.02;45.73;102168.22;4979868;28;47662;-45
2022/05/07 01:14:06;;;;;;;;;12.00;9.33;;;;;17.00;46.29;102170.09;4961565;28;45314;-44
2022/05/07 01:16:32;;;;;;;;;9.00;8.67;;;;;16.98;46.26;102167.50;4979620;28;45350;-45
2022/05/07 01:18:57;;;;;;;;;8.33;8.00;;;;;16.94;46.37;102160.56;4979538;28;64578;-47
2022/05/07 01:21:22;;;;;;;;;11.67;10.67;;;;;16.93;46.08;102166.03;4979733;28;63301;-45
2022/05/07 01:23:48;;;;;;;;;13.33;9.00;;;;;16.86;46.19;102158.28;4979742;28;45352;-48
2022/05/07 01:26:14;;;;;;;;;10.33;10.00;;;;;16.82;46.16;102162.09;4980487;28;45487;-45
2022/05/07 01:28:40;;;;;;;;;12.33;10.00;;;;;16.80;46.68;102160.44;4979734;28;46131;-47
2022/05/07 01:31:06;;;;;;;;;13.00;12.00;;;;;16.74;46.27;102156.28;4979717;28;45488;-45
2022/05/07 01:33:33;;;;;;;;;8.67;8.67;;;;;16.73;46.79;102161.75;4978486;28;45705;-45
2022/05/07 01:36:00;;;;;;;;;13.33;12.33;;;;;16.70;46.62;102160.94;4980276;28;45236;-46
2022/05/07 01:38:25;;;;;;;;;11.67;11.67;;;;;16.70;46.78;102165.47;4979650;28;46069;-45
2022/05/07 01:40:51;;;;;;;;;9.33;9.33;;;;;16.68;46.95;102161.97;4977935;28;61980;-46
2022/05/07 01:43:16;;;;;;;;;11.00;11.00;;;;;16.67;47.20;102158.44;4978715;28;61786;-46
2022/05/07 01:45:41;;;;;;;;;12.67;11.33;;;;;16.65;46.96;102151.41;4978968;28;45521;-45
2022/05/07 01:48:10;;;;;;;;;9.33;9.33;;;;;16.60;47.06;102159.69;4979471;28;46128;-45
2022/05/07 01:50:40;;;;;;;;;16.00;12.33;;;;;16.60;46.82;102162.38;4979354;28;45421;-45
2022/05/07 01:53:09;;;;;;;;;12.33;10.00;;;;;16.56;47.23;102155.44;4979397;28;45686;-44
2022/05/07 01:55:35;;;;;;;;;14.33;11.67;;;;;16.51;47.27;102150.31;4979415;28;45731;-46
2022/05/07 01:58:00;;;;;;;;;12.00;12.00;;;;;16.47;47.87;102154.13;4979371;28;45322;-45
2022/05/07 02:00:26;;;;;;;;;13.00;11.00;;;;;16.44;47.34;102161.47;4982745;28;45470;-45
2022/05/07 02:02:52;;;;;;;;;11.33;9.00;;;;;16.41;47.71;102156.28;4978044;28;45430;-45
2022/05/07 02:05:17;;;;;;;;;11.00;9.33;;;;;16.40;47.56;102155.41;4979693;28;45539;-45
2022/05/07 02:07:42;;;;;;;;;11.33;11.33;;;;;16.40;47.78;102158.09;4978547;28;46940;-44
2022/05/07 02:10:08;;;;;;;;;13.00;10.00;;;;;16.42;48.22;102158.88;4975035;28;63144;-46
2022/05/07 02:12:34;;;;;;;;;13.00;12.67;;;;;16.41;47.82;102153.59;4978842;28;45376;-44
2022/05/07 02:14:59;;;;;;;;;17.33;14.67;;;;;16.38;48.47;102147.41;4979004;28;60458;-44
2022/05/07 02:17:24;;;;;;;;;15.67;14.33;;;;;16.38;48.20;102160.00;4976770;28;65676;-45
2022/05/07 02:19:50;;;;;;;;;15.67;14.67;;;;;16.40;48.07;102155.41;4978278;28;63958;-44
2022/05/07 02:22:15;;;;;;;;;14.67;12.00;;;;;16.41;48.20;102156.28;4978935;28;60510;-45
2022/05/07 02:24:41;;;;;;;;;14.33;12.00;;;;;16.35;48.03;102158.34;4977960;28;60601;-44
2022/05/07 02:27:06;;;;;;;;;16.00;14.67;;;;;16.32;47.95;102153.13;4979438;28;46055;-44
2022/05/07 02:29:31;;;;;;;;;16.00;12.33;;;;;16.32;48.50;102157.63;4979057;28;45250;-45
2022/05/07 02:32:06;;;;;;;;;11.00;11.00;;;;;16.30;48.52;102155.03;4978687;28;58817;-45
2022/05/07 02:34:35;;;;;;;;;10.67;10.00;;;;;16.29;48.60;102158.66;4977718;28;45300;-45
2022/05/07 02:37:01;;;;;;;;;10.00;10.00;;;;;16.29;48.19;102158.66;4978659;28;45428;-45
2022/05/07 02:39:26;;;;;;;;;13.67;12.00;;;;;16.27;48.50;102152.50;4979075;28;45407;-46
2022/05/07 02:44:36;;;;;;;;;14.33;14.33;;;;;16.22;48.45;102151.88;4974745;28;45310;-45
2022/05/07 02:47:02;;;;;;;;;11.33;11.00;;;;;16.17;48.61;102152.09;4978756;28;46282;-44
2022/05/07 02:49:27;;;;;;;;;12.00;12.00;;;;;16.12;48.33;102156.84;4961058;28;45396;-43
2022/05/07 02:51:53;;;;;;;;;13.33;12.00;;;;;16.06;49.05;102153.63;4978602;28;59837;-44
2022/05/07 02:54:18;;;;;;;;;15.67;11.67;;;;;16.01;49.10;102153.88;4980621;28;59838;-45
2022/05/07 02:56:44;;;;;;;;;11.67;11.67;;;;;15.98;49.31;102154.00;4982182;28;45998;-44
2022/05/07 02:59:09;;;;;;;;;13.33;11.33;;;;;15.92;49.39;102155.22;4981498;28;64383;-44
2022/05/07 03:01:35;;;;;;;;;17.00;14.00;;;;;15.88;49.01;102151.81;4982250;28;46018;-44
2022/05/07 03:04:00;;;;;;;;;14.00;11.00;;;;;15.87;49.55;102149.22;4981448;28;45350;-44
2022/05/07 03:06:26;;;;;;;;;11.67;10.33;;;;;15.87;49.63;102147.38;4981592;28;66330;-44
2022/05/07 03:08:52;;;;;;;;;13.00;10.67;;;;;15.86;49.84;102151.00;4980876;28;61991;-44
2022/05/07 03:11:17;;;;;;;;;12.33;11.67;;;;;15.83;49.86;102145.81;4982563;28;45237;-44
2022/05/07 03:13:43;;;;;;;;;14.33;14.00;;;;;15.83;49.76;102155.69;4981721;28;45498;-44
2022/05/07 03:16:08;;;;;;;;;13.33;12.00;;;;;15.81;50.22;102152.19;4981779;28;66639;-44
2022/05/07 03:18:35;;;;;;;;;13.00;12.33;;;;;15.80;49.75;102153.09;4981684;28;45330;-45
2022/05/07 03:21:01;;;;;;;;;15.00;11.00;;;;;15.79;50.42;102152.25;4982200;28;45472;-46
2022/05/07 03:23:26;;;;;;;;;15.00;13.00;;;;;15.77;50.04;102151.44;4978274;28;45336;-44
2022/05/07 03:25:52;;;;;;;;;13.33;12.00;;;;;15.77;49.66;102146.06;4981588;28;45566;-46
2022/05/07 03:28:17;;;;;;;;;15.33;15.00;;;;;15.76;49.97;102154.22;4982185;28;45365;-45
2022/05/07 03:30:43;;;;;;;;;17.00;15.00;;;;;15.75;50.09;102144.41;4981901;28;45321;-44
2022/05/07 03:33:08;;;;;;;;;16.33;16.00;;;;;15.73;49.82;102136.44;4981402;28;54286;-44
2022/05/07 03:35:34;;;;;;;;;14.67;13.67;;;;;15.73;50.36;102139.13;4980927;28;63229;-44
2022/05/07 03:37:59;;;;;;;;;15.00;15.00;;;;;15.73;50.58;102147.19;4981241;28;45389;-43
2022/05/07 03:40:24;;;;;;;;;15.33;12.33;;;;;15.69;50.37;102145.59;4981659;28;54983;-43
2022/05/07 03:42:50;;;;;;;;;18.00;15.67;;;;;15.68;50.18;102144.75;4981403;28;45669;-43
2022/05/07 03:45:15;;;;;;;;;13.33;12.00;;;;;15.67;50.62;102137.66;4981772;28;46088;-44
2022/05/07 03:47:41;;;;;;;;;15.00;10.67;;;;;15.64;50.39;102136.91;4978938;28;45306;-45
2022/05/07 03:50:06;;;;;;;;;18.67;15.33;;;;;15.64;50.99;102142.28;4981233;28;61158;-44
2022/05/07 03:55:16;;;;;;;;;19.33;16.33;;;;;15.64;50.98;102137.78;4982141;28;45325;-44
2022/05/07 03:57:41;;;;;;;;;16.33;14.00;;;;;15.63;50.90;102133.38;4980267;28;66148;-45
2022/05/07 04:00:07;;;;;;;;;14.33;13.33;;;;;15.61;50.59;102137.09;4981200;28;61757;-47
2022/05/07 04:02:35;;;;;;;;;18.00;17.00;;;;;15.59;50.94;102138.97;4981132;28;45455;-47
2022/05/07 04:05:03;;;;;;;;;18.33;16.00;;;;;15.54;51.22;102133.84;4980487;28;46290;-44
2022/05/07 04:07:29;;;;;;;;;15.00;14.33;;;;;15.53;51.31;102134.78;4963471;28;45259;-43
2022/05/07 04:09:55;;;;;;;;;15.00;15.00;;;;;15.51;52.05;102134.88;4980561;28;61322;-44
2022/05/07 04:12:21;;;;;;;;;12.33;12.00;;;;;15.48;51.13;102139.50;4981571;28;45412;-45
2022/05/07 04:14:46;;;;;;;;;20.67;17.33;;;;;15.44;51.16;102137.94;4980608;28;46817;-44
2022/05/07 04:17:12;;;;;;;;;21.00;17.67;;;;;15.36;52.03;102136.47;4980645;28;54484;-44
2022/05/07 04:19:37;;;;;;;;;22.33;16.00;;;;;15.33;51.53;102136.66;4980559;28;58981;-46
2022/05/07 04:22:03;;;;;;;;;15.33;14.67;;;;;15.25;52.10;102141.50;4979842;28;62016;-47
2022/05/07 04:24:28;;;;;;;;;15.00;13.00;;;;;15.18;52.09;102140.06;4979838;28;45821;-46
2022/05/07 04:26:54;;;;;;;;;23.00;17.67;;;;;15.15;52.71;102137.53;4980176;28;45545;-46
2022/05/07 04:29:19;;;;;;;;;16.33;15.33;;;;;15.11;52.41;102136.81;4979589;28;45393;-45
2022/05/07 04:31:45;;;;;;;;;16.67;16.00;;;;;15.11;52.62;102141.28;4980605;28;45564;-43
2022/05/07 04:34:11;;;;;;;;;24.67;19.33;;;;;15.11;52.59;102141.28;4980539;28;46120;-44
2022/05/07 04:36:36;;;;;;;;;20.33;18.00;;;;;15.11;52.71;102136.81;4980607;28;45327;-44
2022/05/07 04:39:02;;;;;;;;;17.00;16.00;;;;;15.06;52.88;102138.84;4980493;28;45435;-45
2022/05/07 04:41:27;;;;;;;;;23.00;17.33;;;;;15.06;52.73;102144.22;4981197;28;48571;-44
2022/05/07 04:43:53;;;;;;;;;22.00;20.00;;;;;15.07;52.75;102137.03;4980826;28;46167;-45
2022/05/07 04:46:18;;;;;;;;;12.00;12.00;;;;;15.07;53.07;102139.69;4979873;28;64352;-48
2022/05/07 04:48:45;;;;;;;;;20.00;18.00;;;;;15.05;53.50;102140.63;4979934;28;45345;-43
2022/05/07 04:51:10;;;;;;;;;17.33;16.67;;;;;15.04;53.17;102135.34;4980965;28;46040;-45
2022/05/07 04:53:36;;;;;;;;;22.33;17.00;;;;;15.04;53.44;102135.34;4978320;28;66260;-44
2022/05/07 04:56:01;;;;;;;;;14.33;14.33;;;;;15.06;53.48;102122.78;4984759;28;64869;-46
2022/05/07 04:58:26;;;;;;;;;21.67;20.67;;;;;15.06;53.14;102122.78;4978650;28;54483;-44
2022/05/07 05:00:52;;;;;;;;;18.33;16.00;;;;;15.03;53.61;102118.44;4976149;28;54680;-45
2022/05/07 05:03:17;;;;;;;;;18.00;18.00;;;;;15.04;52.96;102133.56;4972053;28;47206;-45
2022/05/07 05:05:44;;;;;;;;;18.67;17.67;;;;;15.04;53.46;102132.69;4961967;28;63942;-44
2022/05/07 05:08:09;;;;;;;;;25.33;21.33;;;;;15.05;53.66;102129.06;4979840;28;45302;-44
2022/05/07 05:10:35;;;;;;;;;22.33;18.00;;;;;15.09;53.75;102129.78;4979583;28;45345;-46
2022/05/07 05:13:00;;;;;;;;;19.67;16.67;;;;;15.09;53.52;102138.69;4980105;28;46155;-45
2022/05/07 05:15:26;;;;;;;;;18.33;17.67;;;;;15.11;53.55;102135.94;4978974;28;64250;-44
2022/05/07 05:17:51;;;;;;;;;18.33;16.67;;;;;15.15;53.72;102138.41;4978953;28;45476;-44
2022/05/07 05:20:17;;;;;;;;;21.33;19.67;;;;;15.16;53.62;102117.81;4980201;28;45591;-43
2022/05/07 05:22:47;;;;;;;;;20.00;19.00;;;;;15.17;53.58;102120.41;4979245;28;57558;-44
2022/05/07 05:25:13;;;;;;;;;13.00;13.00;;;;;15.19;53.68;102126.59;4979128;28;45439;-45
2022/05/07 05:27:38;;;;;;;;;19.67;18.33;;;;;15.24;53.49;102133.53;4973703;28;58820;-44
2022/05/07 05:30:04;;;;;;;;;21.33;18.67;;;;;15.25;53.50;102121.88;4970272;28;61271;-44
2022/05/07 05:32:29;;;;;;;;;22.00;20.33;;;;;15.26;53.33;102123.63;4979459;28;45438;-44
2022/05/07 05:34:55;;;;;;;;;17.00;17.00;;;;;15.29;53.32;102134.16;4979347;28;65202;-44
2022/05/07 05:37:20;;;;;;;;;28.00;22.67;;;;;15.33;53.25;102139.31;4973794;28;45342;-44
2022/05/07 05:39:45;;;;;;;;;18.33;18.33;;;;;15.35;53.30;102137.41;4978633;28;58193;-45
2022/05/07 05:42:11;;;;;;;;;18.33;17.67;;;;;15.35;53.51;102136.56;4979385;28;45427;-44
2022/05/07 05:44:40;;;;;;;;;22.33;16.67;;;;;15.32;53.75;102140.25;4970845;28;45522;-44
2022/05/07 05:47:06;;;;;;;;;23.33;19.33;;;;;15.30;53.55;102135.91;4978960;28;45650;-45
2022/05/07 05:49:33;;;;;;;;;20.00;17.67;;;;;15.30;54.38;102138.59;4978613;28;45235;-45
2022/05/07 05:52:00;;;;;;;;;22.67;19.00;;;;;15.31;54.04;102148.38;4966720;28;47182;-44
2022/05/07 05:54:26;;;;;;;;;23.33;19.00;;;;;15.30;53.84;102150.19;4977757;28;45286;-44
2022/05/07 05:56:51;;;;;;;;;26.33;22.00;;;;;15.32;53.67;102134.91;4974933;28;45909;-45
2022/05/07 05:59:17;;;;;;;;;17.67;17.67;;;;;15.37;53.81;102145.41;4978827;28;62527;-46
2022/05/07 06:01:42;;;;;;;;;30.00;21.67;;;;;15.39;53.85;102138.16;4957204;28;46092;-44
2022/05/07 06:04:07;;;;;;;;;19.33;17.67;;;;;15.41;53.67;102141.63;4977730;28;45414;-45
2022/05/07 06:06:33;;;;;;;;;20.33;20.00;;;;;15.42;53.82;102135.28;4961971;28;45374;-44
2022/05/07 06:08:58;;;;;;;;;25.00;20.00;;;;;15.45;53.61;102135.16;4978238;28;60863;-43
2022/05/07 06:11:23;;;;;;;;;19.33;19.33;;;;;15.46;53.79;102138.69;4978396;28;65129;-44
2022/05/07 06:13:49;;;;;;;;;21.33;17.33;;;;;15.50;53.60;102148.31;4978866;28;45290;-44
2022/05/07 06:16:17;;;;;;;;;20.33;18.00;;;;;15.49;53.76;102143.94;4979786;28;45516;-45
2022/05/07 06:18:42;;;;;;;;;21.00;19.67;;;;;15.48;53.89;102144.88;4978349;28;46407;-44
2022/05/07 06:21:08;;;;;;;;;19.33;18.00;;;;;15.47;53.69;102149.34;4978859;28;68638;-44
2022/05/07 06:23:33;;;;;;;;;24.67;21.33;;;;;15.47;54.13;102154.72;4976581;28;62308;-47
2022/05/07 06:28:42;;;;;;;;;22.00;19.67;;;;;15.54;53.94;102174.94;4978258;28;45337;-46
2022/05/07 06:31:10;;;;;;;;;26.33;26.33;;;;;15.53;53.67;102189.28;4978709;28;46864;-44
2022/05/07 06:33:36;;;;;;;;;21.33;18.67;;;;;15.47;54.02;102176.16;4978916;28;45414;-44
2022/05/07 06:36:01;;;;;;;;;18.67;16.33;;;;;15.45;53.94;102186.09;4969971;28;45667;-46
2022/05/07 06:38:26;;;;;;;;;21.67;18.33;;;;;15.48;54.28;102185.94;4970767;28;45528;-46
2022/05/07 06:40:52;;;;;;;;;26.00;22.00;;;;;15.53;54.28;102188.41;4976778;28;45958;-47
2022/05/07 06:43:17;;;;;;;;;21.67;20.00;;;;;15.56;54.14;102193.63;4979332;28;45909;-47
2022/05/07 06:45:43;;;;;;;;;26.33;21.00;;;;;15.58;54.61;102191.75;4977819;28;45306;-49
2022/05/07 06:48:11;;;;;;;;;27.00;23.00;;;;;15.60;53.58;102197.88;4970729;28;61660;-47
2022/05/07 06:50:37;;;;;;;;;23.00;22.00;;;;;15.57;53.85;102195.38;4974381;28;46188;-48
2022/05/07 06:53:02;;;;;;;;;29.33;25.00;;;;;15.53;54.15;102191.09;4974257;28;45299;-48
2022/05/07 06:55:33;;;;;;;;;23.00;23.00;;;;;15.51;54.08;102185.81;4959860;28;45355;-47
2022/05/07 06:58:01;;;;;;;;;27.33;23.00;;;;;15.48;54.18;102177.91;4971538;28;45359;-47
2022/05/07 07:00:27;;;;;;;;;22.00;19.00;;;;;15.47;54.20;102178.84;4978595;28;45349;-47
2022/05/07 07:02:52;;;;;;;;;21.67;19.33;;;;;15.48;54.21;102187.78;4975968;28;45278;-50
2022/05/07 07:05:17;;;;;;;;;21.67;19.00;;;;;15.50;54.56;102177.81;4978592;28;45873;-49
2022/05/07 07:07:43;;;;;;;;;24.00;22.33;;;;;15.55;54.31;102182.03;4977560;28;62726;-48
2022/05/07 07:10:09;;;;;;;;;28.67;23.00;;;;;15.60;54.51;102173.75;4978064;28;46107;-47
2022/05/07 07:12:38;;;;;;;;;19.33;19.33;;;;;15.63;54.32;102175.41;4975967;28;45573;-48
2022/05/07 07:15:05;;;;;;;;;26.33;23.33;;;;;15.71;54.21;102181.28;4977745;28;45355;-49
2022/05/07 07:17:32;;;;;;;;;26.33;20.00;;;;;15.78;54.27;102180.00;4978244;28;45689;-50
2022/05/07 07:19:57;;;;;;;;;30.33;24.67;;;;;15.87;54.12;102178.72;4978139;28;46914;-48
2022/05/07 07:22:23;;;;;;;;;17.33;17.33;;;;;15.94;53.88;102181.94;4977365;28;65942;-49
2022/05/07 07:24:48;;;;;;;;;19.33;17.33;;;;;15.93;53.82;102180.22;4978648;28;45734;-49
2022/05/07 07:27:13;;;;;;;;;21.33;18.33;;;;;15.96;54.17;102167.50;4969748;28;53710;-51
2022/05/07 07:29:39;;;;;;;;;22.00;19.00;;;;;15.99;54.04;102175.41;4976998;28;50423;-49
2022/05/07 07:32:05;;;;;;;;;20.33;19.33;;;;;16.03;54.18;102177.00;4978786;28;45279;-47
2022/05/07 07:34:30;;;;;;;;;20.00;17.67;;;;;16.04;54.34;102178.72;4977778;28;45413;-48
2022/05/07 07:36:56;;;;;;;;;24.33;19.33;;;;;16.07;54.29;102177.69;4978062;28;45519;-48
2022/05/07 07:39:21;;;;;;;;;21.00;18.33;;;;;16.07;54.27;102180.38;4978236;28;66168;-50
2022/05/07 07:41:46;;;;;;;;;21.00;17.67;;;;;16.09;54.38;102186.53;4981675;28;45564;-48
2022/05/07 07:44:12;;;;;;;;;17.67;16.67;;;;;16.14;53.78;102186.28;4981770;28;45459;-48
2022/05/07 07:49:21;;;;;;;;;19.67;17.67;;;;;16.35;53.82;102173.59;4978985;28;45535;-50
2022/05/07 07:51:47;;;;;;;;;20.00;18.33;;;;;16.46;53.62;102183.75;4981073;28;45686;-50
2022/05/07 07:54:13;;;;;;;;;21.67;19.67;;;;;16.49;53.57;102179.09;4980936;28;56847;-45
2022/05/07 07:56:38;;;;;;;;;17.33;15.00;;;;;16.49;54.09;102179.09;4983091;28;45425;-47
2022/05/07 07:59:04;;;;;;;;;18.33;18.33;;;;;16.54;53.34;102173.47;4980780;28;46224;-46
2022/05/07 08:01:29;;;;;;;;;31.00;29.00;;;;;16.62;54.19;102173.03;4980941;28;50662;-48
2022/05/07 08:03:54;;;;;;;;;18.67;15.00;;;;;16.72;53.84;102168.06;4976376;28;45292;-46
2022/05/07 08:06:20;;;;;;;;;21.00;19.33;;;;;16.87;53.76;102168.06;4981238;28;45635;-46
2022/05/07 08:11:41;;;;;;;;;14.67;13.33;;;;;17.26;53.04;102157.91;4973207;28;45238;-45
2022/05/07 08:14:08;;;;;;;;;16.67;15.67;;;;;17.48;52.34;102164.72;4964439;28;45364;-47
2022/05/07 08:16:33;;;;;;;;;24.00;17.67;;;;;17.61;52.38;102155.00;4980119;28;45535;-47
2022/05/07 08:18:59;;;;;;;;;17.33;15.33;;;;;17.80;51.68;102159.28;4972146;28;48082;-44
2022/05/07 08:21:25;;;;;;;;;19.00;17.00;;;;;18.00;51.78;102160.81;4974609;28;45251;-47
2022/05/07 08:23:50;;;;;;;;;19.33;17.00;;;;;18.14;51.32;102166.22;4978882;28;45524;-45
2022/05/07 08:26:16;;;;;;;;;18.33;15.67;;;;;18.20;51.15;102156.94;4975621;28;45573;-45
2022/05/07 08:28:41;;;;;;;;;18.00;15.67;;;;;18.32;51.08;102166.94;4975113;28;45975;-46
2022/05/07 08:31:07;;;;;;;;;17.00;16.33;;;;;18.58;50.60;102160.91;4976457;28;45365;-45
2022/05/07 08:33:33;;;;;;;;;21.67;14.00;;;;;18.96;50.27;102160.34;4968147;28;45554;-47
2022/05/07 08:35:58;;;;;;;;;11.33;10.67;;;;;19.40;49.81;102156.56;4977556;28;45406;-45
2022/05/07 08:38:24;;;;;;;;;17.33;16.00;;;;;19.69;48.87;102164.56;4980098;28;46267;-49
2022/05/07 08:40:50;;;;;;;;;14.00;13.00;;;;;19.87;48.40;102173.28;4973611;28;45782;-47
2022/05/07 08:43:16;;;;;;;;;20.33;17.00;;;;;19.99;47.78;102163.47;4955760;28;45433;-49
2022/05/07 08:45:42;;;;;;;;;13.33;11.67;;;;;20.05;47.64;102167.56;4959696;28;45348;-45
2022/05/07 08:48:10;;;;;;;;;8.33;8.00;;;;;20.15;47.53;102165.97;4978579;28;45911;-47
2022/05/07 08:50:36;;;;;;;;;14.67;13.00;;;;;20.35;47.42;102161.91;4956224;28;45936;-47
2022/05/07 08:53:01;;;;;;;;;10.00;10.00;;;;;20.54;46.88;102164.16;4945980;28;45436;-45
2022/05/07 08:55:27;;;;;;;;;14.67;11.00;;;;;20.65;46.43;102166.09;4975412;28;45662;-46
2022/05/07 08:57:52;;;;;;;;;10.67;9.67;;;;;20.57;46.23;102172.06;4972847;28;67897;-46
2022/05/07 09:00:20;;;;;;;;;11.33;11.33;;;;;20.43;46.12;102170.31;4978992;28;45661;-45
2022/05/07 09:02:50;;;;;;;;;14.00;9.00;;;;;20.38;46.43;102166.22;4979390;28;45294;-45
2022/05/07 09:05:19;;;;;;;;;14.33;12.00;;;;;20.32;46.40;102159.41;4977777;28;45446;-46
2022/05/07 09:07:52;;;;;;;;;13.67;12.00;;;;;20.29;46.56;102165.03;4979091;28;46207;-45
2022/05/07 09:10:19;;;;;;;;;12.67;11.33;;;;;20.46;46.45;102159.28;4976948;28;45980;-45
2022/05/07 09:12:44;;;;;;;;;8.00;7.00;;;;;20.80;46.23;102161.44;4973014;28;45409;-46
2022/05/07 09:15:10;;;;;;;;;10.33;8.33;;;;;21.17;45.61;102161.47;4980234;28;45245;-45
2022/05/07 09:17:36;;;;;;;;;16.67;12.33;;;;;21.47;45.15;102150.22;4979469;28;45918;-45
2022/05/07 09:20:14;;;;;;;;;13.00;10.33;;;;;21.74;45.04;102157.22;4959783;28;45437;-46
2022/05/07 09:23:06;;;;;;;;;9.00;9.00;;;;;21.87;43.86;102156.31;4979161;28;45476;-45
2022/05/07 09:25:31;;;;;;;;;13.67;10.00;;;;;21.98;44.29;102149.06;4970954;28;45299;-45
2022/05/07 09:27:57;;;;;;;;;10.33;9.00;;;;;22.27;44.25;102142.38;4977422;28;67802;-46
2022/05/07 09:30:26;;;;;;;;;12.00;10.33;;;;;22.55;43.20;102135.63;4979991;28;45299;-45
2022/05/07 09:32:53;;;;;;;;;10.00;8.33;;;;;22.74;43.19;102134.16;4973372;28;45508;-46
2022/05/07 09:38:04;;;;;;;;;9.67;7.67;;;;;23.07;42.87;102140.50;4969432;28;45593;-45
2022/05/07 09:40:30;;;;;;;;;11.33;8.33;;;;;23.34;42.59;102133.84;4978975;28;45234;-45
2022/05/07 09:42:58;;;;;;;;;12.67;10.33;;;;;23.68;41.83;102139.97;4975829;28;45444;-45
2022/05/07 09:45:27;;;;;;;;;7.33;7.33;;;;;24.01;40.87;102138.09;4979820;28;45230;-46
2022/05/07 09:47:54;;;;;;;;;9.00;8.67;;;;;24.11;40.40;102135.44;4974048;28;46265;-45
2022/05/07 09:50:20;;;;;;;;;11.33;9.00;;;;;24.11;40.68;102135.44;4961877;28;45352;-46
2022/05/07 09:58:17;;;;;;;;;5.33;4.67;;;;;24.33;39.37;102128.16;4979111;28;45244;-47
2022/05/07 10:01:14;;;;;;;;;9.00;8.33;;;;;24.13;39.72;102129.88;4978798;28;45627;-47
2022/05/07 10:03:39;;;;;;;;;9.00;7.67;;;;;24.17;39.33;102126.78;4978744;28;45410;-45
2022/05/07 10:06:17;;;;;;;;;10.33;8.33;;;;;24.55;39.42;102117.06;4974365;28;45333;-48
2022/05/07 10:09:15;;;;;;;;;10.33;8.33;;;;;25.09;39.08;102109.50;4960933;28;46303;-45
2022/05/07 10:11:40;;;;;;;;;8.67;8.00;;;;;25.26;37.97;102110.66;4972091;28;45557;-46
2022/05/07 10:14:06;;;;;;;;;9.67;9.67;;;;;25.11;37.45;102120.28;4954026;28;57692;-46
2022/05/07 10:16:31;;;;;;;;;14.00;11.00;;;;;24.94;37.96;102119.09;4978871;28;45603;-47
2022/05/07 10:19:07;;;;;;;;;9.67;9.67;;;;;24.78;37.93;102122.31;4978806;28;45496;-49
2022/05/07 10:21:33;;;;;;;;;11.00;8.67;;;;;24.56;38.28;102121.53;4962975;28;45289;-47
2022/05/07 10:23:58;;;;;;;;;10.33;8.33;;;;;24.39;38.43;102133.91;4979535;28;45778;-45
2022/05/07 10:26:40;;;;;;;;;6.67;6.67;;;;;24.07;38.37;102129.41;4975300;28;51059;-46
2022/05/07 10:29:07;;;;;;;;;10.67;8.67;;;;;23.56;38.79;102133.72;4962337;28;46201;-47
2022/05/07 10:31:43;;;;;;;;;11.00;10.33;;;;;23.18;39.42;102132.38;4978474;28;45314;-47
2022/05/07 10:34:08;;;;;;;;;11.67;10.00;;;;;22.94;39.88;102135.22;4979328;28;45309;-46
2022/05/07 10:36:35;;;;;;;;;10.33;9.00;;;;;22.75;40.00;102127.72;4975176;28;54814;-47
2022/05/07 10:39:06;;;;;;;;;12.00;10.33;;;;;22.59;40.07;102125.41;4974659;28;47082;-45
2022/05/07 10:41:32;;;;;;;;;7.67;7.67;;;;;22.50;40.48;102124.28;4974448;28;45422;-49
2022/05/07 10:43:58;;;;;;;;;11.00;9.00;;;;;22.52;40.58;102125.03;4956732;28;45334;-45
2022/05/07 10:46:23;;;;;;;;;9.00;9.00;;;;;22.49;40.63;102125.28;4973269;28;45408;-46
2022/05/07 10:48:48;;;;;;;;;8.00;8.00;;;;;22.46;40.87;102123.69;4974904;28;65215;-45
2022/05/07 10:51:21;;;;;;;;;10.33;9.33;;;;;22.40;40.88;102132.31;4978988;28;45196;-45
2022/05/07 10:53:46;;;;;;;;;11.00;8.33;;;;;22.35;41.02;102128.22;4973682;28;46013;-47
2022/05/07 10:56:13;;;;;;;;;9.00;8.33;;;;;22.25;41.04;102126.22;4982870;28;45551;-46
2022/05/07 10:58:44;;;;;;;;;12.67;8.33;;;;;22.21;41.23;102126.59;4978151;28;46175;-46
2022/05/07 11:01:09;;;;;;;;;9.33;9.33;;;;;22.21;41.65;102129.28;4971913;28;45296;-47
2022/05/07 11:03:34;;;;;;;;;5.67;5.67;;;;;22.21;41.23;102119.31;4977750;28;63915;-45
2022/05/07 11:06:03;;;;;;;;;9.00;7.00;;;;;22.13;41.38;102127.19;4978126;28;45284;-46
2022/05/07 11:08:30;;;;;;;;;8.67;7.00;;;;;22.10;41.26;102122.88;4977738;28;45276;-46
2022/05/07 11:11:09;;;;;;;;;8.00;8.00;;;;;22.18;41.54;102111.44;4954116;28;45369;-50
2022/05/07 11:13:51;;;;;;;;;9.33;7.67;;;;;22.54;41.74;102103.22;4977378;28;45577;-46
2022/05/07 11:16:17;;;;;;;;;9.67;7.67;;;;;23.07;40.99;102107.97;4979137;28;46835;-48
2022/05/07 11:18:50;;;;;;;;;8.33;7.00;;;;;23.61;40.37;102104.34;4970681;28;45431;-45
2022/05/07 11:21:16;;;;;;;;;11.33;9.67;;;;;23.83;39.46;102115.19;4981754;28;45544;-46
2022/05/07 11:23:43;;;;;;;;;7.67;7.67;;;;;23.87;39.34;102106.69;4981651;28;45422;-45
2022/05/07 11:26:13;;;;;;;;;7.00;6.67;;;;;23.94;39.14;102102.44;4979854;28;45797;-45
2022/05/07 11:28:43;;;;;;;;;8.33;8.33;;;;;23.92;38.63;102103.56;4981492;28;45250;-45
2022/05/07 11:31:10;;;;;;;;;12.33;10.00;;;;;23.78;38.94;102100.16;4980663;28;45417;-46
2022/05/07 11:33:35;;;;;;;;;7.00;6.00;;;;;23.71;38.82;102104.38;4963955;28;45483;-48
2022/05/07 11:36:01;;;;;;;;;8.67;7.00;;;;;23.60;38.77;102093.63;4964013;28;45611;-43